KGCK/GCK METAR and TAF weather

Enter ICAO airport designator
Station Type Date Time Source
KGCK METAR 2023/02/05 23:54 UTC NOAA

KGCK 052354Z 14013KT 10SM CLR 11/M06 A2996 RMK AO2 SLP155 T01111056 10161 20111 56015


Station Type Date Time Source
KGCK Decoded METAR 2023/02/05 23:54 UTC NOAA

GARDEN CITY REGIONAL AIRPORT, KS, United States (KGCK) 37-55N 100-43W 877M
Feb 05, 2023 - 06:54 PM EST / 2023.02.05 2354 UTC
Wind: from the SE (140 degrees) at 15 MPH (13 KT):0
Visibility: 10 mile(s):0
Sky conditions: clear
Temperature: 52.0 F (11.1 C)
Dew Point: 21.9 F (-5.6 C)
Relative Humidity: 30%
Pressure (altimeter): 29.96 in. Hg (1014 hPa)
Pressure tendency: 0.04 inches (1.5 hPa) lower than three hours ago
ob: KGCK 052354Z 14013KT 10SM CLR 11/M06 A2996 RMK AO2 SLP155 T01111056 10161 20111 56015
cycle: 0

Station Type Date Time Source
KGCK TAF 2023/02/05 18:22 UTC NOAA

TAF KGCK 051720Z 0518/0618 16010KT P6SM FEW250
FM060400 15013KT P6SM SCT180
FM061200 24010KT P6SM BKN180
FM061700 31015KT P6SM FEW220

Example: see airport list